Time;durP1;ratioP1;P1;durP2;ratioP2;P2;SDS_P1;SDS_P2;PMS_P1;PMS_P2;Temp;Humidity;BMP_temperature;BMP_pressure;BME280_temperature;BME280_humidity;BME280_pressure;Samples;Min_cycle;Max_cycle;Signal;HPM_P1;HPM_P2
2022/10/25 00:01:27;;;;;;;10.40;3.13;;;;;;;12.62;100.00;101156.19;6180510;23;20079;-92
2022/10/25 00:03:53;;;;;;;;;;;;;;;12.63;100.00;101161.34;6185305;23;20343;-91
2022/10/25 00:06:18;;;;;;;12.70;3.42;;;;;;;12.50;100.00;101141.75;6184594;23;20380;-92
2022/10/25 00:08:44;;;;;;;12.50;3.20;;;;;;;12.63;100.00;101157.88;6183318;23;20386;-92
2022/10/25 00:11:17;;;;;;;9.88;3.33;;;;;;;12.65;100.00;101162.16;6181670;23;20005;-92
2022/10/25 00:13:43;;;;;;;10.90;2.85;;;;;;;12.68;100.00;101148.22;6179852;23;20032;-91
2022/10/25 00:16:17;;;;;;;10.05;2.90;;;;;;;12.78;100.00;101154.00;6180338;23;20084;-92
2022/10/25 00:18:43;;;;;;;9.25;2.75;;;;;;;12.78;100.00;101154.00;6181731;23;20084;-92
2022/10/25 00:21:08;;;;;;;9.93;2.95;;;;;;;12.86;100.00;101152.91;6181712;23;20040;-92
2022/10/25 00:23:34;;;;;;;11.75;3.20;;;;;;;12.84;100.00;101143.44;6181404;23;20005;-92
2022/10/25 00:26:08;;;;;;;9.25;3.17;;;;;;;12.96;100.00;101166.53;6180154;23;20012;-91
2022/10/25 00:28:33;;;;;;;16.88;3.60;;;;;;;12.94;100.00;101166.56;6180951;23;20008;-90
2022/10/25 00:31:10;;;;;;;12.13;3.55;;;;;;;12.96;100.00;101169.97;6181335;23;20001;-90
2022/10/25 00:33:37;;;;;;;9.07;2.90;;;;;;;12.97;100.00;101176.00;6181317;23;20319;-90
2022/10/25 00:36:11;;;;;;;10.57;3.15;;;;;;;12.93;100.00;101177.84;6181368;23;20071;-90
2022/10/25 00:38:37;;;;;;;12.65;3.28;;;;;;;12.93;100.00;101175.25;6181175;23;20009;-90
2022/10/25 00:41:03;;;;;;;8.93;3.17;;;;;;;12.90;100.00;101171.88;6181639;23;20312;-89
2022/10/25 00:43:40;;;;;;;10.27;2.85;;;;;;;12.97;100.00;101178.59;6180956;23;20008;-90
2022/10/25 00:46:30;;;;;;;9.95;2.85;;;;;;;12.99;100.00;101188.09;6180736;23;20011;-90
2022/10/25 00:49:05;;;;;;;10.68;2.72;;;;;;;12.99;100.00;101180.28;6178738;23;20044;-90
2022/10/25 00:51:48;;;;;;;9.13;3.05;;;;;;;13.07;100.00;101186.13;6181495;23;20063;-91
2022/10/25 00:54:18;;;;;;;12.03;3.20;;;;;;;13.10;100.00;101186.94;6179812;23;20511;-90
2022/10/25 00:56:48;;;;;;;12.75;3.13;;;;;;;13.11;100.00;101189.50;6181290;23;20008;-90
2022/10/25 00:59:18;;;;;;;12.30;2.97;;;;;;;13.14;100.00;101188.59;6181010;23;20423;-90
2022/10/25 01:01:44;;;;;;;10.43;2.92;;;;;;;13.16;100.00;101190.25;6179076;23;20475;-90
2022/10/25 01:04:14;;;;;;;14.52;3.10;;;;;;;13.18;100.00;101185.84;6181544;23;20036;-90
2022/10/25 01:06:44;;;;;;;9.02;2.70;;;;;;;13.17;100.00;101176.31;6181604;23;20014;-91
2022/10/25 01:09:14;;;;;;;11.55;3.13;;;;;;;13.18;100.00;101172.81;6183525;23;20332;-90
2022/10/25 01:11:39;;;;;;;9.40;2.67;;;;;;;13.19;100.00;101169.34;6181565;23;20008;-90
2022/10/25 01:14:11;;;;;;;8.82;2.85;;;;;;;13.28;100.00;101182.09;6181943;23;20005;-90
2022/10/25 01:16:52;;;;;;;12.00;2.72;;;;;;;13.33;100.00;101195.81;6181183;23;20013;-90
2022/10/25 01:20:03;;;;;;;10.25;2.80;;;;;;;13.36;100.00;101185.31;6181234;23;20005;-90
2022/10/25 01:22:41;;;;;;;11.88;2.75;;;;;;;13.40;100.00;101188.69;6181830;23;20039;-90
2022/10/25 01:25:38;;;;;;;10.52;3.08;;;;;;;13.43;100.00;101192.06;6183239;23;20005;-90
2022/10/25 01:28:11;;;;;;;12.55;2.95;;;;;;;13.45;100.00;101192.84;6182041;23;20442;-89
2022/10/25 01:31:18;;;;;;;10.63;2.80;;;;;;;13.48;100.00;101185.84;6182793;23;20011;-90
2022/10/25 01:34:01;;;;;;;8.25;2.45;;;;;;;13.44;100.00;101185.94;6181187;23;20001;-90
2022/10/25 01:36:56;;;;;;;11.73;2.83;;;;;;;13.50;100.00;101200.53;6182892;23;20008;-90
2022/10/25 01:39:37;;;;;;;17.55;2.78;;;;;;;13.52;100.00;101213.50;6181080;23;20001;-93
2022/10/25 01:42:06;;;;;;;10.80;2.88;;;;;;;13.49;100.00;101198.84;6181819;23;20029;-91
2022/10/25 01:44:59;;;;;;;10.63;2.60;;;;;;;13.50;100.00;101212.72;6181851;23;20013;-92
2022/10/25 01:47:31;;;;;;;12.10;2.50;;;;;;;13.46;100.00;101193.69;6182283;23;20009;-91
2022/10/25 01:50:02;;;;;;;15.10;2.75;;;;;;;13.40;100.00;101194.75;6183128;23;20000;-92
2022/10/25 01:52:27;;;;;;;11.77;2.90;;;;;;;13.41;100.00;101191.25;6180892;23;20009;-92
2022/10/25 01:54:53;;;;;;;11.23;2.60;;;;;;;13.41;100.00;101188.63;6181343;23;20020;-92
2022/10/25 01:57:42;;;;;;;13.75;2.88;;;;;;;13.48;100.00;101193.66;6181600;23;20465;-93
2022/10/25 02:00:14;;;;;;;9.05;2.17;;;;;;;13.54;100.00;101196.06;6181593;23;20485;-91
2022/10/25 02:02:55;;;;;;;9.50;2.10;;;;;;;13.51;100.00;101202.22;6183600;23;20032;-91
2022/10/25 02:05:26;;;;;;;11.85;2.50;;;;;;;13.49;100.00;101200.59;6180773;23;20013;-91
2022/10/25 02:08:03;;;;;;;9.27;2.42;;;;;;;13.44;100.00;101216.34;6182785;23;20457;-92
2022/10/25 02:10:43;;;;;;;9.35;2.22;;;;;;;13.44;100.00;101217.19;6181486;23;20009;-90
2022/10/25 02:13:31;;;;;;;15.23;2.80;;;;;;;13.49;100.00;101213.59;6180923;23;20005;-90
2022/10/25 02:16:16;;;;;;;7.50;2.53;;;;;;;13.50;100.00;101220.53;6182880;23;20001;-90
2022/10/25 02:18:47;;;;;;;8.75;2.30;;;;;;;13.46;100.00;101211.94;6182365;23;20001;-90
2022/10/25 02:21:14;;;;;;;14.38;2.80;;;;;;;13.49;100.00;101218.81;6182132;23;20055;-90
2022/10/25 02:23:43;;;;;;;10.60;2.38;;;;;;;13.54;100.00;101229.94;6182334;23;20546;-90
2022/10/25 02:26:10;;;;;;;11.35;2.60;;;;;;;13.53;100.00;101228.22;6182831;23;20008;-91
2022/10/25 02:28:39;;;;;;;10.50;2.25;;;;;;;13.52;100.00;101229.13;6180887;23;20462;-91
2022/10/25 02:31:13;;;;;;;13.80;2.40;;;;;;;13.53;100.00;101236.03;6181991;23;20072;-90
2022/10/25 02:33:39;;;;;;;10.65;2.35;;;;;;;13.48;100.00;101228.38;6180327;23;20084;-91
2022/10/25 02:36:11;;;;;;;13.13;2.75;;;;;;;13.42;100.00;101229.41;6181192;23;20080;-89
2022/10/25 02:38:37;;;;;;;10.82;2.38;;;;;;;13.38;100.00;101221.72;6182749;23;20061;-92
2022/10/25 02:41:03;;;;;;;9.55;2.40;;;;;;;13.37;100.00;101233.06;6182496;23;20035;-91
2022/10/25 02:43:29;;;;;;;7.95;2.20;;;;;;;13.40;100.00;101227.75;6180910;23;20427;-91
2022/10/25 02:45:54;;;;;;;10.75;2.53;;;;;;;13.41;100.00;101230.31;6207068;23;20056;-91
2022/10/25 02:48:19;;;;;;;9.30;2.50;;;;;;;13.34;100.00;101225.31;6181821;23;20469;-90
2022/10/25 02:50:45;;;;;;;9.85;2.47;;;;;;;13.25;100.00;101218.63;6181942;23;20009;-92
2022/10/25 02:53:10;;;;;;;10.98;2.53;;;;;;;13.26;100.00;101228.13;6180321;23;20025;-91
2022/10/25 02:55:35;;;;;;;11.68;2.63;;;;;;;13.26;100.00;101235.94;6182336;23;20101;-92
2022/10/25 02:58:01;;;;;;;10.93;2.67;;;;;;;13.22;100.00;101242.16;6182985;23;20005;-91
2022/10/25 03:00:28;;;;;;;12.55;2.95;;;;;;;13.13;100.00;101237.19;6182225;23;20012;-91
2022/10/25 03:02:53;;;;;;;12.80;2.90;;;;;;;13.12;100.00;101239.78;6182998;23;20001;-92
2022/10/25 03:05:19;;;;;;;8.30;2.65;;;;;;;13.01;100.00;101243.56;6180416;23;20039;-92
2022/10/25 03:07:44;;;;;;;14.35;3.35;;;;;;;12.93;100.00;101231.66;6181968;23;20001;-92
2022/10/25 03:10:10;;;;;;;9.15;2.90;;;;;;;12.94;100.00;101235.97;6182497;23;20001;-92
2022/10/25 03:12:35;;;;;;;12.13;2.90;;;;;;;12.89;100.00;101237.84;6182539;23;20509;-92
2022/10/25 03:15:00;;;;;;;10.13;3.30;;;;;;;12.84;100.00;101243.16;6179509;23;20001;-92
2022/10/25 03:17:26;;;;;;;8.60;2.58;;;;;;;12.77;100.00;101232.94;6182578;23;20392;-92
2022/10/25 03:19:51;;;;;;;8.52;2.80;;;;;;;12.79;100.00;101238.97;6182899;23;20005;-91
2022/10/25 03:22:17;;;;;;;13.32;2.80;;;;;;;12.82;100.00;101260.56;6180028;23;20482;-92
2022/10/25 03:24:42;;;;;;;9.98;3.22;;;;;;;12.78;100.00;101255.47;6182655;23;20023;-92
2022/10/25 03:27:08;;;;;;;10.55;2.95;;;;;;;12.62;100.00;101245.44;6179775;23;20001;-91
2022/10/25 03:29:33;;;;;;;11.98;2.92;;;;;;;12.69;100.00;101263.53;6182519;23;20032;-91
2022/10/25 03:31:58;;;;;;;8.18;2.63;;;;;;;12.65;100.00;101270.53;6180169;23;20031;-91
2022/10/25 03:34:24;;;;;;;10.43;3.00;;;;;;;12.62;100.00;101270.63;6182146;23;20358;-92
2022/10/25 03:36:51;;;;;;;8.65;3.13;;;;;;;12.60;100.00;101275.88;6179335;23;20371;-92
2022/10/25 03:39:16;;;;;;;9.32;2.65;;;;;;;12.57;100.00;101273.31;6182272;23;20055;-91
2022/10/25 03:41:41;;;;;;;10.25;2.95;;;;;;;12.56;100.00;101282.00;6182378;23;20009;-91
2022/10/25 03:44:07;;;;;;;9.57;3.17;;;;;;;12.55;100.00;101292.47;6181961;23;20051;-90
2022/10/25 03:46:33;;;;;;;10.25;3.22;;;;;;;12.49;100.00;101290.84;6182003;23;20331;-90
2022/10/25 03:48:58;;;;;;;9.45;2.80;;;;;;;12.48;100.00;101294.38;6180052;23;20005;-92
2022/10/25 03:51:23;;;;;;;10.05;3.10;;;;;;;12.47;100.00;101287.47;6179840;23;20724;-91
2022/10/25 03:53:49;;;;;;;9.00;2.72;;;;;;;12.42;100.00;101294.50;6181274;23;20013;-91
2022/10/25 03:56:15;;;;;;;9.43;3.45;;;;;;;12.41;100.00;101292.81;6181426;23;20067;-91
2022/10/25 03:58:40;;;;;;;8.77;2.97;;;;;;;12.29;100.00;101277.47;6181972;23;20096;-92
2022/10/25 04:01:08;;;;;;;8.23;2.83;;;;;;;12.35;100.00;101300.72;6181984;23;20087;-91
2022/10/25 04:03:34;;;;;;;9.82;3.00;;;;;;;12.23;100.00;101282.81;6179948;23;20015;-92
2022/10/25 04:05:59;;;;;;;11.70;3.25;;;;;;;12.25;100.00;101296.66;6180233;23;20382;-92
2022/10/25 04:08:25;;;;;;;8.15;2.80;;;;;;;12.22;100.00;101304.50;6181447;23;20005;-91
2022/10/25 04:10:50;;;;;;;7.88;2.78;;;;;;;12.23;100.00;101301.88;6182212;23;20390;-91
2022/10/25 04:13:15;;;;;;;7.63;2.90;;;;;;;12.14;100.00;101293.47;6181277;23;20001;-92
2022/10/25 04:15:41;;;;;;;8.88;2.83;;;;;;;12.25;100.00;101301.84;6182041;23;20465;-92
2022/10/25 04:18:06;;;;;;;9.35;2.90;;;;;;;12.27;100.00;101297.47;6180276;23;20028;-91
2022/10/25 04:20:32;;;;;;;7.95;2.85;;;;;;;12.21;100.00;101295.84;6181638;23;20059;-91
2022/10/25 04:22:57;;;;;;;12.27;3.00;;;;;;;12.19;100.00;101297.66;6180997;23;20001;-92
2022/10/25 04:25:24;;;;;;;10.18;3.40;;;;;;;12.17;100.00;101315.03;6178721;23;20452;-92
2022/10/25 04:27:50;;;;;;;8.50;2.97;;;;;;;12.09;100.00;101306.53;6181647;23;20012;-91
2022/10/25 04:30:15;;;;;;;8.68;2.97;;;;;;;12.03;100.00;101301.47;6179640;23;20012;-90
2022/10/25 04:32:41;;;;;;;10.10;3.22;;;;;;;12.06;100.00;101305.75;6180029;23;20004;-91
2022/10/25 04:35:07;;;;;;;10.75;2.75;;;;;;;12.13;100.00;101315.13;6181674;23;20319;-90
2022/10/25 04:37:32;;;;;;;9.38;2.83;;;;;;;12.12;100.00;101323.81;6181593;23;20080;-92
2022/10/25 04:39:57;;;;;;;9.98;3.10;;;;;;;12.07;100.00;101313.53;6181557;23;20004;-90
2022/10/25 04:42:22;;;;;;;8.80;3.10;;;;;;;12.03;100.00;101305.81;6180624;23;20001;-90
2022/10/25 04:44:48;;;;;;;8.07;3.42;;;;;;;11.96;100.00;101305.09;6179116;23;20323;-91
2022/10/25 04:47:13;;;;;;;6.90;3.00;;;;;;;11.95;100.00;101311.19;6179626;23;20326;-91
2022/10/25 04:49:39;;;;;;;6.55;2.97;;;;;;;11.95;100.00;101311.19;6181909;23;19997;-91
2022/10/25 04:52:04;;;;;;;12.57;3.38;;;;;;;12.03;100.00;101327.47;6181275;23;20084;-91
2022/10/25 04:54:29;;;;;;;10.10;3.28;;;;;;;12.01;100.00;101324.03;6181426;23;20116;-91
2022/10/25 04:56:55;;;;;;;12.05;3.40;;;;;;;12.00;100.00;101322.34;6180407;23;20005;-91
2022/10/25 04:59:20;;;;;;;10.02;3.35;;;;;;;11.95;100.00;101323.31;6180530;23;20455;-92
2022/10/25 05:01:46;;;;;;;10.15;3.47;;;;;;;11.97;100.00;101331.94;6180088;23;20060;-90
2022/10/25 05:04:11;;;;;;;13.02;3.22;;;;;;;11.99;100.00;101337.97;6177166;23;20509;-91
2022/10/25 05:06:36;;;;;;;12.35;3.67;;;;;;;11.93;100.00;101333.75;6179038;23;20296;-90
2022/10/25 05:09:05;;;;;;;8.88;3.50;;;;;;;11.94;100.00;101329.44;6180765;23;20355;-90
2022/10/25 05:11:31;;;;;;;12.15;3.75;;;;;;;11.92;100.00;101337.25;6180683;23;20005;-91
2022/10/25 05:13:56;;;;;;;7.20;3.50;;;;;;;11.87;100.00;101321.72;6179169;23;20012;-91
2022/10/25 05:16:23;;;;;;;13.52;4.20;;;;;;;11.93;100.00;101335.50;6177873;23;20058;-91
2022/10/25 05:18:53;;;;;;;12.88;3.72;;;;;;;11.90;100.00;101346.81;6180425;23;20029;-91
2022/10/25 05:21:19;;;;;;;10.60;3.72;;;;;;;11.87;100.00;101346.88;6180047;23;20064;-90
2022/10/25 05:23:45;;;;;;;12.98;3.80;;;;;;;11.86;100.00;101345.16;6180933;23;20064;-91
2022/10/25 05:26:15;;;;;;;14.43;4.30;;;;;;;11.78;100.00;101342.72;6180849;23;20015;-91
2022/10/25 05:28:44;;;;;;;10.55;3.90;;;;;;;11.80;100.00;101345.31;6179777;23;20019;-90
2022/10/25 05:31:18;;;;;;;10.55;3.95;;;;;;;11.85;100.00;101357.31;6180922;23;20374;-91
2022/10/25 05:33:44;;;;;;;12.33;3.90;;;;;;;11.69;100.00;101329.03;6180404;23;19997;-91
2022/10/25 05:36:11;;;;;;;11.98;3.85;;;;;;;11.78;100.00;101350.53;6179728;23;20339;-92
2022/10/25 05:38:37;;;;;;;11.88;4.15;;;;;;;11.79;100.00;101360.03;6180640;23;20001;-91
2022/10/25 05:41:03;;;;;;;10.30;3.65;;;;;;;11.80;100.00;101371.28;6179516;23;20152;-92
2022/10/25 05:43:28;;;;;;;10.73;3.92;;;;;;;11.79;100.00;101366.97;6178477;23;20009;-92
2022/10/25 05:46:07;;;;;;;9.75;3.70;;;;;;;11.76;100.00;101367.88;6179555;23;20403;-92
2022/10/25 05:48:34;;;;;;;9.95;3.80;;;;;;;11.67;100.00;101356.78;6174958;23;20005;-90
2022/10/25 05:51:15;;;;;;;10.52;3.58;;;;;;;11.73;100.00;101380.91;6180986;23;20526;-90
2022/10/25 05:53:51;;;;;;;13.32;3.92;;;;;;;11.70;100.00;101373.16;6181492;23;19997;-90
2022/10/25 05:56:18;;;;;;;10.32;3.78;;;;;;;11.67;100.00;101378.41;6178454;23;20854;-90
2022/10/25 05:58:43;;;;;;;10.75;3.67;;;;;;;11.68;100.00;101387.03;6181228;23;20031;-90
2022/10/25 06:01:10;;;;;;;10.98;3.40;;;;;;;11.60;100.00;101376.81;6181476;23;21313;-89
2022/10/25 06:03:36;;;;;;;11.35;3.80;;;;;;;11.60;100.00;101378.56;6180517;23;20005;-91
2022/10/25 06:06:04;;;;;;;14.65;4.28;;;;;;;11.60;100.00;101376.81;6179819;23;20012;-91
2022/10/25 06:08:30;;;;;;;9.57;3.63;;;;;;;11.62;100.00;101389.75;6181771;23;20005;-90
2022/10/25 06:11:01;;;;;;;11.65;3.83;;;;;;;11.74;100.00;101395.59;6181782;23;20056;-90
2022/10/25 06:13:26;;;;;;;11.05;3.90;;;;;;;11.77;100.00;101402.50;6180043;23;20004;-90
2022/10/25 06:15:51;;;;;;;13.15;3.83;;;;;;;11.78;100.00;101402.47;6181854;23;20011;-90
2022/10/25 06:18:17;;;;;;;14.60;3.92;;;;;;;11.82;100.00;101398.91;6181915;23;20028;-90
2022/10/25 06:20:42;;;;;;;14.63;3.67;;;;;;;11.83;100.00;101403.22;6180448;23;20088;-91
2022/10/25 06:23:08;;;;;;;12.70;4.05;;;;;;;11.85;100.00;101413.59;6178776;23;20008;-90
2022/10/25 06:25:36;;;;;;;13.02;4.43;;;;;;;11.77;100.00;101400.75;6180511;23;20005;-90
2022/10/25 06:28:02;;;;;;;14.82;4.80;;;;;;;11.72;100.00;101404.28;6182034;23;20615;-90
2022/10/25 06:30:27;;;;;;;11.70;4.20;;;;;;;11.76;100.00;101412.03;6180531;23;20136;-90
2022/10/25 06:32:53;;;;;;;10.85;4.60;;;;;;;11.77;100.00;101426.72;6182026;23;20001;-91
2022/10/25 06:35:19;;;;;;;13.32;4.78;;;;;;;11.64;100.00;101401.84;6179949;23;20001;-91
2022/10/25 06:37:44;;;;;;;14.25;4.80;;;;;;;11.77;100.00;101423.25;6180464;23;20001;-90
2022/10/25 06:40:10;;;;;;;16.48;5.38;;;;;;;11.67;100.00;101414.75;6178161;23;20489;-91
2022/10/25 06:42:35;;;;;;;12.70;5.35;;;;;;;11.69;100.00;101417.31;6181280;23;20008;-90
2022/10/25 06:45:01;;;;;;;14.57;5.60;;;;;;;11.75;100.00;101431.09;6181304;23;20016;-92
2022/10/25 06:47:29;;;;;;;18.70;6.22;;;;;;;11.75;100.00;101441.47;6181922;23;20124;-91
2022/10/25 06:49:55;;;;;;;17.17;5.72;;;;;;;11.75;100.00;101435.41;6178747;23;19997;-91
2022/10/25 06:52:20;;;;;;;18.05;5.95;;;;;;;11.65;100.00;101426.94;6181700;23;20004;-91
2022/10/25 06:54:45;;;;;;;20.88;6.70;;;;;;;11.74;100.00;101434.56;6181081;23;20017;-91
2022/10/25 06:57:11;;;;;;;16.02;6.43;;;;;;;11.84;100.00;101443.91;6178792;23;20012;-90
2022/10/25 06:59:36;;;;;;;13.38;5.95;;;;;;;11.84;100.00;101441.31;6181842;23;20088;-91
2022/10/25 07:02:04;;;;;;;17.13;6.00;;;;;;;11.91;100.00;101446.38;6180901;23;20387;-91
2022/10/25 07:04:31;;;;;;;13.82;6.40;;;;;;;11.83;100.00;101433.53;6179506;23;20005;-91
2022/10/25 07:06:57;;;;;;;17.08;5.93;;;;;;;11.90;100.00;101440.31;6179423;23;20059;-91
2022/10/25 07:09:24;;;;;;;14.65;6.10;;;;;;;11.92;100.00;101451.56;6182376;23;20072;-91
2022/10/25 07:11:50;;;;;;;18.38;6.30;;;;;;;11.89;100.00;101454.19;6181142;23;20032;-91
2022/10/25 07:14:16;;;;;;;17.63;5.82;;;;;;;11.92;100.00;101459.34;6180823;23;20000;-91
2022/10/25 07:16:41;;;;;;;15.43;6.25;;;;;;;11.94;100.00;101467.13;6180063;23;20039;-91
2022/10/25 07:19:07;;;;;;;17.80;6.53;;;;;;;11.96;100.00;101470.53;6180155;23;20335;-90
2022/10/25 07:21:33;;;;;;;13.75;6.30;;;;;;;11.87;100.00;101453.38;6181954;23;20009;-91
2022/10/25 07:23:59;;;;;;;18.70;6.40;;;;;;;11.91;100.00;101467.16;6179884;23;20005;-90
2022/10/25 07:26:30;;;;;;;16.63;6.53;;;;;;;12.02;100.00;101457.41;6180990;23;20012;-90
2022/10/25 07:28:57;;;;;;;19.08;6.85;;;;;;;12.04;100.00;101464.28;6180641;23;20005;-90
2022/10/25 07:31:35;;;;;;;19.33;6.00;;;;;;;12.13;100.00;101486.66;6181336;23;20001;-90
2022/10/25 07:34:03;;;;;;;17.67;6.47;;;;;;;12.13;100.00;101486.66;6182114;23;20059;-91
2022/10/25 07:36:29;;;;;;;21.05;6.75;;;;;;;12.17;100.00;101483.09;6181930;23;20012;-90
2022/10/25 07:38:55;;;;;;;20.10;6.72;;;;;;;12.31;100.00;101494.06;6178999;23;20005;-91
2022/10/25 07:41:21;;;;;;;22.38;7.20;;;;;;;12.41;100.00;101489.56;6181408;23;20041;-91
2022/10/25 07:43:47;;;;;;;16.50;6.80;;;;;;;12.61;100.00;101493.44;6178872;23;20639;-91
2022/10/25 07:46:12;;;;;;;15.93;6.32;;;;;;;12.74;100.00;101485.38;6181998;23;20084;-91
2022/10/25 07:48:37;;;;;;;17.85;6.57;;;;;;;12.82;100.00;101499.91;6181487;23;20076;-91
2022/10/25 07:51:12;;;;;;;21.02;6.90;;;;;;;12.95;100.00;101493.53;6182091;23;20032;-91
2022/10/25 07:53:37;;;;;;;20.05;7.07;;;;;;;13.05;100.00;101500.22;6180962;23;20001;-91
2022/10/25 07:56:04;;;;;;;18.80;6.78;;;;;;;13.16;100.00;101509.59;6179659;23;20036;-91
2022/10/25 07:58:29;;;;;;;17.42;6.30;;;;;;;13.24;100.00;101511.09;6181699;23;20008;-93
2022/10/25 08:01:06;;;;;;;17.00;6.13;;;;;;;13.31;100.00;101510.06;6181969;23;20009;-91
2022/10/25 08:03:33;;;;;;;19.35;6.28;;;;;;;13.30;100.00;101497.94;6180959;23;20012;-92
2022/10/25 08:05:59;;;;;;;15.35;6.63;;;;;;;13.44;100.00;101513.25;6180126;23;20013;-91
2022/10/25 08:08:25;;;;;;;21.63;6.88;;;;;;;13.52;100.00;101516.47;6180953;23;20012;-92
2022/10/25 08:10:54;;;;;;;20.10;7.40;;;;;;;13.53;100.00;101506.91;6181806;23;20001;-91
2022/10/25 08:13:20;;;;;;;18.58;6.80;;;;;;;13.56;100.00;101506.84;6179999;23;20001;-92
2022/10/25 08:15:50;;;;;;;15.73;6.47;;;;;;;13.51;100.00;101498.31;6181575;23;20001;-91
2022/10/25 08:18:16;;;;;;;19.42;7.32;;;;;;;13.65;100.00;101522.22;6180401;23;20519;-92
2022/10/25 08:20:41;;;;;;;18.35;7.05;;;;;;;13.61;100.00;101502.38;6181033;23;20554;-92
2022/10/25 08:23:06;;;;;;;17.20;6.32;;;;;;;13.78;100.00;101526.25;6179484;23;20084;-92
2022/10/25 08:25:32;;;;;;;13.65;6.45;;;;;;;13.84;100.00;101529.56;6180700;23;20513;-91
2022/10/25 08:27:57;;;;;;;14.90;7.10;;;;;;;13.82;100.00;101520.06;6181811;23;20052;-92
2022/10/25 08:30:23;;;;;;;17.35;7.18;;;;;;;13.79;100.00;101504.50;6181797;23;20009;-91
2022/10/25 08:32:50;;;;;;;15.15;6.90;;;;;;;13.88;100.00;101525.09;6179629;23;20001;-91
2022/10/25 08:35:15;;;;;;;17.42;7.15;;;;;;;13.99;100.00;101543.09;6182003;23;20085;-91
2022/10/25 08:37:40;;;;;;;13.65;6.88;;;;;;;14.04;100.00;101538.59;6181658;23;20025;-92
2022/10/25 08:40:14;;;;;;;23.50;9.05;;;;;;;14.03;100.00;101522.09;6181568;23;20561;-92
2022/10/25 08:43:17;;;;;;;20.05;7.28;;;;;;;14.18;100.00;101529.50;6180105;23;20009;-91
2022/10/25 08:46:05;;;;;;;16.98;6.65;;;;;;;14.22;100.00;101530.25;6179266;23;20012;-92
2022/10/25 08:48:43;;;;;;;15.57;6.70;;;;;;;14.21;100.00;101525.94;6178175;23;20001;-90
2022/10/25 08:51:32;;;;;;;16.85;6.78;;;;;;;14.33;100.00;101537.81;6180781;23;20012;-91
2022/10/25 08:54:03;;;;;;;20.50;7.15;;;;;;;14.35;100.00;101542.06;6180530;23;20005;-92
2022/10/25 08:56:29;;;;;;;15.90;7.30;;;;;;;14.26;100.00;101529.31;6181354;23;20066;-90
2022/10/25 08:58:58;;;;;;;15.60;7.05;;;;;;;14.26;100.00;101526.69;6181379;23;20080;-90
2022/10/25 09:01:28;;;;;;;15.50;6.88;;;;;;;14.37;100.00;101552.47;6180330;23;20005;-91
2022/10/25 09:03:54;;;;;;;18.92;6.60;;;;;;;14.42;100.00;101548.00;6178417;23;20107;-90
2022/10/25 09:06:30;;;;;;;17.48;7.35;;;;;;;14.55;100.00;101550.22;6179596;23;20028;-92
2022/10/25 09:09:27;;;;;;;17.10;7.35;;;;;;;14.68;100.00;101557.69;6178279;23;20382;-92
2022/10/25 09:12:34;;;;;;;17.20;7.40;;;;;;;14.65;100.00;101545.59;6180624;23;20368;-92
2022/10/25 09:15:15;;;;;;;15.52;7.10;;;;;;;14.73;100.00;101559.28;6148941;23;20024;-92
2022/10/25 09:17:50;;;;;;;16.75;7.00;;;;;;;14.84;100.00;101572.84;6174464;23;20371;-93
2022/10/25 09:20:27;;;;;;;17.98;7.20;;;;;;;14.74;100.00;101560.13;6178836;23;20395;-92
2022/10/25 09:23:15;;;;;;;17.60;6.75;;;;;;;14.81;100.00;101580.75;6179461;23;20012;-93
2022/10/25 09:25:55;;;;;;;18.35;6.78;;;;;;;14.75;99.13;101573.13;6180034;23;20261;-91
2022/10/25 09:28:35;;;;;;;15.82;6.53;;;;;;;14.72;100.00;101583.66;6181052;23;20673;-92
2022/10/25 09:31:02;;;;;;;16.35;6.10;;;;;;;14.64;99.98;101564.75;6181148;23;20090;-92
2022/10/25 09:33:31;;;;;;;14.68;5.68;;;;;;;14.74;98.34;101574.00;6180767;23;20028;-92
2022/10/25 09:35:58;;;;;;;14.48;6.22;;;;;;;14.71;98.68;101570.66;6179901;23;20013;-93
2022/10/25 09:38:40;;;;;;;18.30;5.93;;;;;;;14.79;99.48;101574.75;6180649;23;20088;-91
2022/10/25 09:41:27;;;;;;;16.67;6.05;;;;;;;14.92;99.69;101593.50;6181930;23;20072;-91
2022/10/25 09:44:05;;;;;;;15.32;6.57;;;;;;;14.80;98.40;101571.25;6182165;23;20001;-93
2022/10/25 09:46:43;;;;;;;15.88;6.07;;;;;;;14.88;97.93;101589.28;6180297;23;20005;-92
2022/10/25 09:49:16;;;;;;;16.98;6.22;;;;;;;14.83;97.87;101585.94;6180573;23;20001;-92
2022/10/25 09:52:01;;;;;;;17.08;6.10;;;;;;;14.80;98.49;101586.91;6181484;23;20011;-91
2022/10/25 09:54:38;;;;;;;15.77;5.63;;;;;;;14.70;97.87;101582.00;6180277;23;20092;-92
2022/10/25 09:57:03;;;;;;;17.25;5.68;;;;;;;14.68;97.97;101586.38;6178737;23;20040;-92
2022/10/25 09:59:29;;;;;;;12.88;5.93;;;;;;;14.74;98.78;101587.06;6180437;23;20368;-93
2022/10/25 10:01:54;;;;;;;18.02;6.63;;;;;;;14.81;98.25;101590.34;6180966;23;20009;-91
2022/10/25 10:04:32;;;;;;;11.73;6.10;;;;;;;14.90;97.02;101595.31;6180960;23;20008;-92
2022/10/25 10:07:03;;;;;;;13.95;5.35;;;;;;;14.87;97.85;101583.22;6183049;23;20008;-91
2022/10/25 10:09:31;;;;;;;16.08;5.40;;;;;;;15.09;96.51;101608.66;6181983;23;20005;-92
2022/10/25 10:11:59;;;;;;;15.50;5.05;;;;;;;15.12;96.62;101613.81;6181097;23;20013;-93
2022/10/25 10:14:31;;;;;;;15.55;5.57;;;;;;;15.07;95.84;101598.28;6179121;23;20012;-90
2022/10/25 10:16:59;;;;;;;12.57;4.97;;;;;;;15.15;95.57;101611.13;6180824;23;20023;-92
2022/10/25 10:19:29;;;;;;;13.40;5.10;;;;;;;15.13;95.09;101594.63;6182662;23;20072;-92
2022/10/25 10:22:01;;;;;;;12.93;4.93;;;;;;;15.18;96.92;101597.94;6180788;23;20338;-91
2022/10/25 10:24:32;;;;;;;12.98;4.93;;;;;;;15.24;94.72;101606.44;6179768;23;20079;-91
2022/10/25 10:27:09;;;;;;;13.30;4.63;;;;;;;15.23;95.16;101602.13;6205636;23;20020;-92
2022/10/25 10:29:46;;;;;;;12.85;4.82;;;;;;;15.34;95.14;101620.97;6181001;23;20063;-92
2022/10/25 10:33:02;;;;;;;17.85;5.40;;;;;;;15.34;96.29;101614.88;6180982;23;20032;-92
2022/10/25 10:35:41;;;;;;;12.57;4.75;;;;;;;15.34;95.43;101601.81;6090321;23;20016;-94
2022/10/25 10:38:22;;;;;;;11.27;4.65;;;;;;;15.35;94.42;101606.13;6086819;23;20016;-91
2022/10/25 10:41:12;;;;;;;14.52;4.80;;;;;;;15.45;96.37;101606.69;6065185;23;20382;-91
2022/10/25 10:43:38;;;;;;;8.75;4.32;;;;;;;15.55;94.08;101608.16;6143960;23;20009;-92
2022/10/25 10:46:12;;;;;;;16.30;4.57;;;;;;;15.62;93.08;101601.81;6179046;23;20447;-91
2022/10/25 10:48:41;;;;;;;10.50;4.00;;;;;;;15.61;91.05;101608.81;6179393;23;20029;-91
2022/10/25 10:51:07;;;;;;;9.20;3.83;;;;;;;15.70;91.50;101629.41;6181355;23;20339;-90
2022/10/25 10:53:33;;;;;;;10.75;4.30;;;;;;;15.59;92.31;101622.81;6178932;23;20012;-91
2022/10/25 10:56:06;;;;;;;11.13;3.92;;;;;;;15.52;92.63;101614.28;6181286;23;20048;-92
2022/10/25 10:58:35;;;;;;;16.70;5.53;;;;;;;15.59;91.96;101617.59;6182050;23;20013;-91
2022/10/25 11:01:09;;;;;;;14.70;4.57;;;;;;;15.65;92.16;101613.03;6181355;23;20005;-91
2022/10/25 11:03:40;;;;;;;19.52;5.75;;;;;;;15.86;91.42;101641.97;6180988;23;20458;-90
2022/10/25 11:06:06;;;;;;;13.30;4.72;;;;;;;15.95;91.84;101634.69;6179442;23;20005;-91
2022/10/25 11:08:31;;;;;;;11.52;5.03;;;;;;;15.99;89.66;101635.44;6180343;23;20059;-91
2022/10/25 11:11:19;;;;;;;15.65;5.00;;;;;;;16.03;91.61;101637.06;6179774;23;20387;-91
2022/10/25 11:13:55;;;;;;;10.48;4.90;;;;;;;16.05;91.36;101640.47;6179935;23;20413;-92
2022/10/25 11:16:50;;;;;;;11.75;5.07;;;;;;;16.04;92.40;101638.75;6179082;23;20001;-91
2022/10/25 11:19:23;;;;;;;;;;;;;;;16.15;94.09;101634.03;6182239;23;20449;-92
2022/10/25 11:21:49;;;;;;;9.98;3.92;;;;;;;16.12;91.61;101632.34;6177648;23;19910;-91
2022/10/25 11:24:49;;;;;;;14.17;5.13;;;;;;;16.23;91.49;101636.38;6174143;23;20088;-91
2022/10/25 11:27:25;;;;;;;9.45;4.32;;;;;;;16.21;89.02;101631.19;6179703;23;20287;-91